Time;durP1;ratioP1;P1;durP2;ratioP2;P2;SDS_P1;SDS_P2;PMS_P1;PMS_P2;Temp;Humidity;BMP_temperature;BMP_pressure;BME280_temperature;BME280_humidity;BME280_pressure;Samples;Min_cycle;Max_cycle;Signal;HPM_P1;HPM_P2
2022/07/15 00:07:26;;;;;;;10.95;3.30;;;;;;;12.93;81.91;102118.56;4990855;28;20046;-93
2022/07/15 00:13:04;;;;;;;9.90;2.90;;;;;;;12.97;81.57;102129.63;5031653;28;20346;-93
2022/07/15 00:16:13;;;;;;;5.95;2.38;;;;;;;12.83;81.03;102115.69;5031774;28;20021;-93
2022/07/15 00:19:05;;;;;;;10.98;3.00;;;;;;;12.87;82.32;102123.03;5012715;28;20037;-93
2022/07/15 00:21:38;;;;;;;13.10;2.83;;;;;;;12.82;82.80;102122.94;5018491;28;20017;-93
2022/07/15 00:27:19;;;;;;;9.25;2.50;;;;;;;12.64;83.91;102115.06;5034319;22;20070;-94
2022/07/15 00:29:56;;;;;;;9.45;2.70;;;;;;;12.50;84.28;102104.59;5243355;23;20046;-94
2022/07/15 00:32:25;;;;;;;9.63;2.72;;;;;;;12.48;84.91;102116.66;4990838;28;20424;-94
2022/07/15 00:34:53;;;;;;;8.73;2.70;;;;;;;12.54;84.64;102108.44;4989941;28;20065;-94
2022/07/15 00:37:31;;;;;;;9.10;2.50;;;;;;;12.52;83.67;102115.94;4992284;28;20085;-94
2022/07/15 00:40:22;;;;;;;8.87;3.00;;;;;;;12.56;84.16;102118.94;4991875;28;20787;-94
2022/07/15 00:45:57;;;;;;;8.80;2.40;;;;;;;12.30;85.56;102096.13;4991368;28;20037;-95
2022/07/15 01:04:06;;;;;;;8.80;2.33;;;;;;;12.04;84.83;102117.13;4981776;28;20128;-92
2022/07/15 01:06:32;;;;;;;12.97;2.80;;;;;;;12.01;85.73;102110.31;4956830;28;20082;-94
2022/07/15 01:09:29;;;;;;;;;;;;;;;;;;;;;
2022/07/15 01:12:00;;;;;;;7.28;2.80;;;;;;;11.93;85.74;102099.94;4964812;28;20035;-93
2022/07/15 01:14:26;;;;;;;17.98;2.95;;;;;;;11.92;85.85;102115.22;4973706;28;20091;-94
2022/07/15 01:18:07;;;;;;;10.23;3.03;;;;;;;11.89;84.53;102115.69;4955055;28;20125;-94
2022/07/15 01:20:43;;;;;;;7.45;2.78;;;;;;;11.76;86.23;102097.13;4913701;29;20091;-93
2022/07/15 01:23:20;;;;;;;6.05;2.60;;;;;;;11.71;86.25;102097.00;4917692;29;20072;-94
2022/07/15 01:26:56;;;;;;;8.82;2.50;;;;;;;11.61;85.09;102098.44;4914474;29;20080;-93
2022/07/15 01:29:31;;;;;;;9.20;3.05;;;;;;;11.57;86.94;102107.19;4829500;29;20085;-93
2022/07/15 01:32:33;;;;;;;10.55;2.78;;;;;;;11.63;86.38;102123.19;4849898;29;20069;-93
2022/07/15 01:37:34;;;;;;;12.75;2.83;;;;;;;11.45;87.43;102116.03;5043953;23;20046;-94
2022/07/15 01:40:08;;;;;;;11.70;2.97;;;;;;;11.48;87.49;102125.50;5003552;28;20027;-93
2022/07/15 01:42:52;;;;;;;8.40;3.08;;;;;;;11.43;87.17;102111.94;5002522;28;20041;-93
2022/07/15 01:45:21;;;;;;;8.15;2.80;;;;;;;11.45;88.50;102123.28;5020928;28;20037;-93
2022/07/15 01:50:46;;;;;;;9.15;3.10;;;;;;;11.36;88.00;102120.13;5084046;22;20053;-94
2022/07/15 01:53:12;;;;;;;10.93;3.20;;;;;;;11.35;88.60;102121.97;5013801;28;20038;-94
2022/07/15 01:55:59;;;;;;;10.80;2.73;;;;;;;11.45;88.49;102142.06;5032069;28;20372;-94
2022/07/15 01:58:27;;;;;;;12.10;2.83;;;;;;;11.33;89.09;102120.56;5026016;28;20028;-93
2022/07/15 02:00:53;;;;;;;9.47;2.90;;;;;;;11.38;89.10;102135.97;5014028;28;20029;-94
2022/07/15 02:03:24;;;;;;;10.47;2.87;;;;;;;11.34;88.52;102131.06;5061792;28;20361;-94
2022/07/15 02:05:53;;;;;;;8.68;2.97;;;;;;;11.33;88.93;102134.00;5076928;28;20039;-94
2022/07/15 02:11:11;;;;;;;7.90;2.58;;;;;;;11.17;88.45;102124.72;5039351;28;20134;-93
2022/07/15 02:17:46;;;;;;;8.67;2.63;;;;;;;11.07;88.34;102133.34;5046476;28;20291;-95
2022/07/15 02:22:53;;;;;;;;;;;;;;;;;;;;;
2022/07/15 02:28:54;;;;;;;7.95;3.00;;;;;;;10.94;88.46;102120.13;5011206;28;20064;-95
2022/07/15 02:31:44;;;;;;;10.63;2.97;;;;;;;10.99;88.61;102136.34;4996125;28;20025;-95
2022/07/15 02:34:28;;;;;;;9.80;2.85;;;;;;;10.97;89.00;102131.22;5012238;28;20096;-93
2022/07/15 02:36:53;;;;;;;7.95;2.42;;;;;;;10.83;89.28;102117.19;5013127;28;20034;-92
2022/07/15 02:39:31;;;;;;;10.73;2.90;;;;;;;10.80;89.52;102114.13;5081383;23;20125;-93
2022/07/15 02:42:06;;;;;;;9.45;2.95;;;;;;;10.75;90.59;102112.13;5003625;28;20026;-92
2022/07/15 02:44:37;;;;;;;8.07;2.92;;;;;;;10.73;90.67;102128.47;5002802;28;20039;-92
2022/07/15 02:47:34;;;;;;;11.77;3.05;;;;;;;10.80;89.72;102138.25;4993765;28;20030;-92
2022/07/15 02:50:08;;;;;;;5.50;2.70;;;;;;;10.67;90.03;102120.50;5101946;23;20073;-92
2022/07/15 02:52:34;;;;;;;17.57;3.23;;;;;;;10.64;90.73;102121.75;5010015;28;20305;-92
2022/07/15 02:55:00;;;;;;;7.75;2.75;;;;;;;10.66;90.90;102132.28;5010202;28;20623;-88
2022/07/15 02:57:25;;;;;;;9.95;2.67;;;;;;;10.71;91.04;102148.47;5009716;28;20038;-88
2022/07/15 02:59:50;;;;;;;12.53;2.80;;;;;;;10.71;91.50;102149.31;5012498;28;20377;-88
2022/07/15 03:02:16;;;;;;;10.50;3.00;;;;;;;10.72;91.48;102150.13;5012623;28;20362;-88
2022/07/15 03:04:42;;;;;;;9.33;2.97;;;;;;;10.68;90.74;102147.06;5010048;28;20073;-88
2022/07/15 03:07:07;;;;;;;8.73;3.00;;;;;;;10.65;91.61;102160.13;5012612;28;20129;-89
2022/07/15 03:09:32;;;;;;;7.53;3.30;;;;;;;10.58;91.18;102160.22;5011844;28;20388;-88
2022/07/15 03:11:57;;;;;;;11.50;2.87;;;;;;;10.54;91.51;102169.72;5008165;28;20026;-89
2022/07/15 03:14:23;;;;;;;14.90;3.50;;;;;;;10.52;92.55;102161.91;5010980;28;20541;-88
2022/07/15 03:16:48;;;;;;;10.83;3.20;;;;;;;10.52;92.62;102163.78;5007978;28;20037;-90
2022/07/15 03:19:13;;;;;;;9.33;3.37;;;;;;;10.49;92.21;102164.22;5010120;28;20062;-90
2022/07/15 03:21:38;;;;;;;13.17;3.13;;;;;;;10.47;92.53;102172.50;5001992;28;20076;-90
2022/07/15 03:24:04;;;;;;;13.23;3.30;;;;;;;10.46;93.30;102173.53;5005469;28;20084;-90
2022/07/15 03:26:29;;;;;;;10.10;2.83;;;;;;;10.45;92.44;102171.91;5011987;28;20527;-90
2022/07/15 03:28:55;;;;;;;11.07;3.27;;;;;;;10.48;93.13;102181.34;5004578;28;20026;-90
2022/07/15 03:31:20;;;;;;;10.00;3.47;;;;;;;10.48;92.93;102178.66;5011366;28;20379;-90
2022/07/15 03:33:45;;;;;;;10.02;2.88;;;;;;;10.50;91.99;102180.06;5010882;28;20537;-90
2022/07/15 03:36:11;;;;;;;13.00;3.30;;;;;;;10.52;92.56;102185.22;5012394;28;20026;-87
2022/07/15 03:38:36;;;;;;;11.23;3.17;;;;;;;10.54;92.60;102185.81;5010791;28;20025;-87
2022/07/15 03:41:01;;;;;;;7.57;2.90;;;;;;;10.59;92.98;102194.81;5009121;28;20018;-87
2022/07/15 03:43:29;;;;;;;13.13;3.53;;;;;;;10.66;92.67;102183.22;5004561;28;20497;-88
2022/07/15 03:45:55;;;;;;;9.50;3.20;;;;;;;10.67;92.80;102187.53;5011095;28;20378;-88
2022/07/15 03:48:21;;;;;;;12.35;3.33;;;;;;;10.69;92.96;102188.09;4990874;28;20473;-88
2022/07/15 03:50:46;;;;;;;12.93;3.27;;;;;;;10.72;93.26;102193.84;5010116;28;20112;-88
2022/07/15 03:53:11;;;;;;;11.68;3.22;;;;;;;10.74;92.95;102191.75;5008987;28;20109;-90
2022/07/15 03:55:37;;;;;;;8.77;3.07;;;;;;;10.80;93.42;102192.72;5011525;28;20121;-89
2022/07/15 03:58:03;;;;;;;13.20;3.00;;;;;;;10.86;92.25;102205.19;5007807;28;20101;-88
2022/07/15 04:00:29;;;;;;;10.10;3.10;;;;;;;10.85;92.76;102195.53;5006662;28;20104;-89
2022/07/15 04:03:00;;;;;;;7.40;3.20;;;;;;;10.91;92.88;102201.88;5006909;28;20049;-90
2022/07/15 04:05:26;;;;;;;6.60;2.67;;;;;;;10.93;92.31;102199.78;5010162;28;20050;-89
2022/07/15 04:10:44;;;;;;;;;;;;;;;;;;;;;
2022/07/15 04:13:12;;;;;;;12.00;3.60;;;;;;;11.18;91.45;102194.28;4960461;28;20038;-90
2022/07/15 04:15:38;;;;;;;8.40;3.20;;;;;;;11.28;91.53;102196.41;5011061;28;20088;-90
2022/07/15 04:18:10;;;;;;;7.37;3.27;;;;;;;11.41;91.09;102198.03;5011114;28;20775;-90
2022/07/15 04:20:54;;;;;;;13.55;3.58;;;;;;;11.54;91.04;102201.59;5010805;28;20088;-90
2022/07/15 04:23:34;;;;;;;8.70;3.33;;;;;;;11.74;90.52;102198.56;5010603;28;20125;-91
2022/07/15 04:26:09;;;;;;;9.00;3.55;;;;;;;11.93;90.47;102197.44;5011216;28;20032;-91
2022/07/15 04:28:53;;;;;;;12.48;3.30;;;;;;;12.17;89.63;102216.28;5015098;28;20037;-96
2022/07/15 04:31:19;;;;;;;13.55;3.50;;;;;;;12.27;89.42;102207.63;5012128;28;20401;-96
2022/07/15 04:34:45;;;;;;;9.93;2.87;;;;;;;12.47;88.60;102206.44;5032153;23;20037;-96
2022/07/15 05:17:44;;;;;;;9.68;2.80;;;;;;;16.96;72.30;102235.28;5393665;23;20054;-95
2022/07/15 05:24:14;;;;;;;;;;;;;;;;;;;;;
2022/07/15 05:26:50;;;;;;;10.05;2.58;;;;;;;19.96;59.35;102237.81;4931508;28;20320;-93
2022/07/15 05:29:21;;;;;;;9.18;2.70;;;;;;;20.48;58.19;102233.69;4998819;28;20509;-93
2022/07/15 05:31:52;;;;;;;8.05;2.67;;;;;;;21.10;57.59;102244.56;5011583;28;20054;-95
2022/07/15 05:43:18;;;;;;;5.43;2.40;;;;;;;22.21;53.99;102243.28;5777376;22;20053;-96
2022/07/15 05:45:43;;;;;;;8.55;2.85;;;;;;;22.07;51.02;102237.81;4961151;29;20061;-93
2022/07/15 05:48:31;;;;;;;;;;;;;;;;;;;;;
2022/07/15 05:51:09;;;;;;;11.25;2.90;;;;;;;21.83;52.24;102227.88;4962522;28;20168;-96
2022/07/15 05:53:35;;;;;;;7.90;2.20;;;;;;;21.72;50.99;102227.25;4995412;28;20023;-96
2022/07/15 05:56:09;;;;;;;8.90;3.10;;;;;;;21.56;53.39;102226.69;4997155;28;20367;-96
2022/07/15 05:58:44;;;;;;;6.30;2.63;;;;;;;21.45;53.68;102227.97;4998753;28;20097;-96
2022/07/15 06:01:09;;;;;;;9.38;2.92;;;;;;;21.18;53.11;102224.84;4994523;28;20113;-96
2022/07/15 06:03:35;;;;;;;7.00;2.40;;;;;;;20.69;54.50;102229.59;5005208;28;20033;-96
2022/07/15 06:06:14;;;;;;;7.77;3.07;;;;;;;19.88;57.19;102227.53;5122300;23;20096;-96
2022/07/15 06:08:45;;;;;;;5.90;2.90;;;;;;;19.26;58.27;102227.22;5120583;23;20095;-96
2022/07/15 06:11:33;;;;;;;5.20;2.50;;;;;;;19.00;60.05;102230.94;5022786;28;20041;-96
2022/07/15 06:14:08;;;;;;;10.07;2.97;;;;;;;18.74;61.37;102222.06;5017031;28;20022;-96
2022/07/15 06:16:52;;;;;;;12.77;2.78;;;;;;;18.53;61.81;102219.47;5025226;28;20045;-96
2022/07/15 06:19:17;;;;;;;5.88;1.92;;;;;;;18.35;62.20;102217.34;5024072;28;20063;-95
2022/07/15 06:21:54;;;;;;;7.37;2.50;;;;;;;18.23;62.05;102223.09;5017836;28;20034;-95
2022/07/15 06:24:23;;;;;;;7.00;2.00;;;;;;;17.99;62.42;102229.94;5016110;28;20022;-95
2022/07/15 06:26:54;;;;;;;7.85;2.13;;;;;;;17.85;62.48;102223.41;5023743;28;20518;-96
2022/07/15 06:29:20;;;;;;;12.02;2.00;;;;;;;17.76;62.51;102219.63;4998297;28;20029;-96
2022/07/15 06:31:51;;;;;;;7.43;2.17;;;;;;;17.47;62.65;102218.28;5020937;28;20041;-96
2022/07/15 06:34:18;;;;;;;12.55;2.05;;;;;;;17.33;64.01;102223.44;5023590;28;20447;-96
2022/07/15 06:37:07;;;;;;;8.15;2.00;;;;;;;17.38;64.87;102220.72;5024738;28;20048;-96
2022/07/15 06:39:39;;;;;;;9.90;1.58;;;;;;;17.35;64.01;102207.69;5012516;28;20065;-96
2022/07/15 06:42:10;;;;;;;6.65;1.70;;;;;;;17.37;64.65;102210.97;5027103;28;20041;-94
2022/07/15 06:44:35;;;;;;;4.37;1.20;;;;;;;17.44;63.85;102223.44;5019580;28;20033;-96
2022/07/15 06:47:02;;;;;;;4.67;1.37;;;;;;;17.38;61.90;102230.75;5020667;28;20400;-94
2022/07/15 06:49:28;;;;;;;5.80;1.20;;;;;;;17.29;60.60;102219.63;5017975;28;20106;-94
2022/07/15 06:51:54;;;;;;;8.30;1.27;;;;;;;17.30;62.53;102226.69;5024731;28;20034;-93
2022/07/15 06:54:20;;;;;;;4.13;1.00;;;;;;;17.15;60.84;102226.66;5014661;28;20182;-96
2022/07/15 07:18:25;;;;;;;6.22;0.95;;;;;;;17.27;59.65;102224.50;4969188;28;20158;-94
2022/07/15 07:21:35;;;;;;;5.10;0.95;;;;;;;17.50;59.44;102241.31;5002673;28;20609;-95
2022/07/15 07:27:54;;;;;;;5.40;1.23;;;;;;;17.48;59.57;102230.75;4907835;29;20359;-95
2022/07/15 07:33:41;;;;;;;5.47;1.10;;;;;;;17.81;60.32;102241.31;5033939;23;20053;-95
2022/07/15 07:36:31;;;;;;;10.05;1.13;;;;;;;17.99;59.58;102246.19;5023292;28;20022;-90
2022/07/15 07:39:57;;;;;;;8.35;1.42;;;;;;;18.19;59.78;102249.13;5145385;22;20043;-92
2022/07/15 07:46:37;;;;;;;7.25;1.25;;;;;;;18.53;59.02;102259.38;5005620;28;20560;-92
2022/07/15 07:49:03;;;;;;;3.20;1.13;;;;;;;18.20;57.25;102257.00;5001376;28;20038;-92
2022/07/15 07:52:05;;;;;;;9.57;1.30;;;;;;;18.28;58.07;102270.00;4999150;28;20122;-93
2022/07/15 07:54:53;;;;;;;3.27;1.03;;;;;;;18.33;57.39;102268.38;5011882;28;20049;-92
2022/07/15 07:57:21;;;;;;;5.63;1.37;;;;;;;18.17;58.14;102247.50;5061461;22;20393;-92
2022/07/15 08:09:54;;;;;;;8.05;1.40;;;;;;;18.62;57.90;102258.50;5507862;23;20050;-93
2022/07/15 08:19:15;;;;;;;7.28;1.20;;;;;;;19.47;54.06;102258.59;4915168;29;20087;-93
2022/07/15 08:21:41;;;;;;;4.57;1.10;;;;;;;19.52;53.85;102242.25;4894809;29;20041;-93
2022/07/15 08:24:30;;;;;;;7.03;1.00;;;;;;;19.47;53.77;102263.19;4892464;29;20508;-92
2022/07/15 08:34:08;;;;;;;3.92;0.85;;;;;;;19.03;52.96;102249.38;4805932;29;20107;-90
2022/07/15 08:39:01;;;;;;;4.55;1.00;;;;;;;19.51;53.26;102267.81;5001182;28;20046;-93
2022/07/15 08:41:26;;;;;;;7.00;1.17;;;;;;;19.65;51.07;102261.72;4971783;28;20026;-93
2022/07/15 08:43:51;;;;;;;3.70;1.10;;;;;;;20.04;51.21;102260.84;4991885;28;20473;-91
2022/07/15 08:46:17;;;;;;;4.95;0.80;;;;;;;20.21;49.71;102257.66;4990179;28;20492;-90
2022/07/15 08:48:50;;;;;;;6.07;0.90;;;;;;;20.40;49.99;102263.19;4977759;28;20053;-94
2022/07/15 08:51:17;;;;;;;4.33;1.00;;;;;;;20.67;47.14;102252.78;4988714;28;20299;-96
2022/07/15 08:53:45;;;;;;;8.10;1.05;;;;;;;20.81;46.88;102248.25;4999999;28;20057;-96
2022/07/15 08:56:10;;;;;;;4.75;1.05;;;;;;;20.90;47.90;102253.06;5064142;22;20516;-93
2022/07/15 08:58:37;;;;;;;3.90;0.90;;;;;;;20.86;46.85;102250.09;5015963;28;20026;-94
2022/07/15 09:09:28;;;;;;;4.22;1.27;;;;;;;21.31;46.98;102250.53;6017642;22;20012;-93
2022/07/15 09:12:48;;;;;;;6.10;1.30;;;;;;;21.39;47.33;102248.22;4987057;28;20073;-94
2022/07/15 09:22:18;;;;;;;4.07;1.10;;;;;;;22.21;44.41;102246.00;4927821;29;20039;-93
2022/07/15 09:24:44;;;;;;;4.73;0.90;;;;;;;21.85;42.51;102242.03;4938483;29;20044;-94
2022/07/15 09:50:33;;;;;;;7.00;1.15;;;;;;;23.84;42.65;102246.44;5035437;23;20042;-84
2022/07/15 09:53:41;;;;;;;3.50;1.27;;;;;;;23.81;40.33;102247.06;5001681;28;20034;-83
2022/07/15 09:56:37;;;;;;;4.63;1.17;;;;;;;23.43;40.11;102237.38;5004766;28;20296;-84
2022/07/15 09:59:11;;;;;;;4.60;1.02;;;;;;;22.72;41.08;102235.97;4976660;28;20117;-84
2022/07/15 10:01:37;;;;;;;5.10;1.08;;;;;;;22.33;42.31;102229.13;4974434;28;20077;-84
2022/07/15 10:04:04;;;;;;;4.82;1.20;;;;;;;22.37;41.77;102225.47;4980564;28;20030;-84
2022/07/15 10:06:32;;;;;;;3.43;1.00;;;;;;;22.66;40.85;102223.53;4994172;28;20034;-93
2022/07/15 10:08:57;;;;;;;5.93;1.07;;;;;;;23.04;41.58;102228.69;4995090;28;20273;-93
2022/07/15 10:11:23;;;;;;;6.10;1.08;;;;;;;23.32;41.45;102219.59;4995546;28;20587;-92
2022/07/15 10:24:14;;;;;;;;;;;;;;;;;;;;;
2022/07/15 10:59:09;;;;;;;3.20;1.20;;;;;;;26.37;35.54;102197.31;5171853;23;20058;-90
2022/07/15 11:02:19;;;;;;;4.75;0.90;;;;;;;26.61;34.79;102193.09;4996909;28;20034;-92
2022/07/15 11:04:50;;;;;;;2.70;0.98;;;;;;;26.61;34.29;102174.66;4985162;28;20043;-92
2022/07/15 11:10:51;;;;;;;18.05;13.10;;;;;;;25.93;34.90;102158.31;5240762;23;20064;-91
2022/07/15 11:17:41;;;;;;;2.78;1.20;;;;;;;26.10;34.44;102177.44;5018746;23;20096;-94
2022/07/15 11:33:39;;;;;;;3.88;1.08;;;;;;;24.39;37.77;102163.06;5377247;23;20054;-90
2022/07/15 11:36:04;;;;;;;4.57;1.00;;;;;;;24.76;35.91;102154.56;4981555;28;20117;-91
2022/07/15 11:39:16;;;;;;;2.60;1.10;;;;;;;25.26;35.83;102161.44;4992460;28;20114;-93
2022/07/15 11:50:28;;;;;;;6.20;1.10;;;;;;;25.75;33.61;102143.84;5022551;23;20046;-91
2022/07/15 11:56:22;;;;;;;4.53;1.00;;;;;;;26.26;34.14;102152.16;5878098;23;20060;-93
2022/07/15 11:58:53;;;;;;;5.20;1.52;;;;;;;26.56;33.38;102146.59;5011058;28;20040;-88
2022/07/15 12:01:28;;;;;;;5.20;1.00;;;;;;;26.82;32.89;102149.13;4982089;28;20037;-90
2022/07/15 12:03:55;;;;;;;4.17;1.30;;;;;;;27.24;32.23;102156.47;5002164;28;20387;-89
2022/07/15 12:06:37;;;;;;;1.50;0.90;;;;;;;27.75;32.38;102141.66;5012289;28;20042;-91
2022/07/15 12:09:08;;;;;;;3.03;1.08;;;;;;;28.25;30.36;102145.97;5023169;28;20098;-90
2022/07/15 12:12:05;;;;;;;3.03;1.10;;;;;;;28.36;31.00;102128.94;5007098;28;20025;-92
2022/07/15 12:14:31;;;;;;;2.22;1.02;;;;;;;28.31;29.94;102148.47;5003602;28;20042;-89
2022/07/15 12:17:22;;;;;;;3.53;0.90;;;;;;;28.40;30.38;102143.63;5017746;28;20057;-90
2022/07/15 12:20:16;;;;;;;3.47;0.82;;;;;;;28.76;29.95;102133.63;5013248;28;20034;-91
2022/07/15 12:23:26;;;;;;;3.72;1.15;;;;;;;29.74;27.76;102134.16;4950522;29;20051;-90
2022/07/15 12:26:16;;;;;;;3.47;1.35;;;;;;;30.40;28.62;102147.44;4957324;28;20041;-92
2022/07/15 12:29:11;;;;;;;2.53;1.25;;;;;;;30.50;27.20;102154.31;5010038;28;20035;-91
2022/07/15 12:32:13;;;;;;;3.75;1.10;;;;;;;29.28;28.79;102142.88;4993780;28;20044;-93
2022/07/15 12:35:04;;;;;;;1.75;0.80;;;;;;;28.26;28.97;102139.31;4992804;28;20022;-91
2022/07/15 12:37:42;;;;;;;1.60;1.00;;;;;;;27.86;30.05;102148.28;5012584;28;20037;-96
2022/07/15 12:40:10;;;;;;;1.38;0.85;;;;;;;27.68;30.43;102152.41;5010710;28;20389;-85
2022/07/15 12:42:49;;;;;;;1.90;0.80;;;;;;;27.21;30.88;102155.19;5010265;28;20096;-88
2022/07/15 12:45:17;;;;;;;2.70;1.37;;;;;;;27.25;30.27;102152.56;5008604;28;20806;-88
2022/07/15 12:48:16;;;;;;;3.45;1.10;;;;;;;27.72;31.19;102143.13;5010089;28;20029;-89
2022/07/15 12:50:47;;;;;;;5.68;1.25;;;;;;;27.54;30.68;102148.06;4995794;28;20042;-86
2022/07/15 12:53:13;;;;;;;1.83;1.10;;;;;;;27.16;30.64;102155.41;5010368;28;20083;-87
2022/07/15 12:58:12;;;;;;;3.72;1.13;;;;;;;26.78;31.13;102150.91;4991284;28;20050;-89
2022/07/15 13:00:40;;;;;;;4.22;0.85;;;;;;;26.37;31.89;102152.56;4990211;28;20041;-89
2022/07/15 13:03:10;;;;;;;3.90;0.90;;;;;;;25.85;31.92;102137.97;4990687;28;20023;-91
2022/07/15 13:05:41;;;;;;;3.25;1.02;;;;;;;25.94;32.90;102138.75;4990517;28;20121;-95
2022/07/15 13:08:08;;;;;;;3.33;0.87;;;;;;;25.95;32.79;102147.78;5013249;28;20037;-93
2022/07/15 13:10:54;;;;;;;4.10;1.00;;;;;;;25.92;33.45;102148.47;5013771;28;20258;-93
2022/07/15 13:13:52;;;;;;;1.92;0.95;;;;;;;26.03;33.15;102130.47;5012617;28;20026;-93
2022/07/15 13:16:18;;;;;;;5.38;1.15;;;;;;;25.82;32.85;102125.72;4963778;28;20117;-84
2022/07/15 13:18:43;;;;;;;2.83;0.90;;;;;;;26.09;32.99;102134.63;4991268;28;20593;-85
2022/07/15 13:21:08;;;;;;;3.35;0.90;;;;;;;26.58;32.53;102141.56;4989955;28;20038;-85
2022/07/15 13:23:34;;;;;;;1.83;0.80;;;;;;;26.84;31.20;102137.81;4989682;28;20022;-84
2022/07/15 13:25:59;;;;;;;2.93;1.10;;;;;;;26.46;32.76;102125.81;4989224;28;21664;-84
2022/07/15 13:28:25;;;;;;;5.20;1.20;;;;;;;27.01;32.72;102137.63;4990683;28;20101;-85
2022/07/15 13:30:51;;;;;;;3.10;0.90;;;;;;;27.25;31.07;102136.06;4989963;28;20101;-84
2022/07/15 13:33:16;;;;;;;3.40;0.88;;;;;;;27.44;31.39;102132.78;4989469;28;20073;-84
2022/07/15 13:35:42;;;;;;;1.40;1.00;;;;;;;27.23;30.96;102132.06;4987648;28;20488;-83
2022/07/15 13:38:07;;;;;;;3.13;0.90;;;;;;;27.37;31.41;102121.53;4990401;28;20023;-83
2022/07/15 13:40:32;;;;;;;4.65;1.17;;;;;;;27.67;30.98;102124.06;4989213;28;20030;-84
2022/07/15 13:42:58;;;;;;;2.53;0.93;;;;;;;27.05;31.38;102124.78;4990414;28;20019;-83
2022/07/15 13:45:23;;;;;;;4.83;1.20;;;;;;;26.86;32.32;102125.31;4989123;28;20504;-83
2022/07/15 13:47:48;;;;;;;2.63;0.93;;;;;;;26.99;33.01;102128.91;4987995;28;20022;-83
2022/07/15 13:52:59;;;;;;;2.85;1.20;;;;;;;25.73;33.44;102115.94;4991811;28;20041;-87
2022/07/15 13:55:25;;;;;;;3.92;1.27;;;;;;;25.43;34.58;102121.41;4987944;28;20038;-87
2022/07/15 13:57:51;;;;;;;5.15;1.23;;;;;;;25.72;33.43;102117.06;4989486;28;20105;-87
2022/07/15 14:00:21;;;;;;;2.55;1.20;;;;;;;25.97;33.54;102118.03;4988286;28;20030;-89
2022/07/15 14:02:47;;;;;;;3.33;1.38;;;;;;;26.26;32.92;102110.94;4990359;28;20082;-88
2022/07/15 14:05:16;;;;;;;1.97;0.90;;;;;;;25.95;33.77;102112.09;4985107;28;20038;-87
2022/07/15 14:07:41;;;;;;;4.00;1.10;;;;;;;26.19;34.27;102107.91;4989012;28;20368;-88
2022/07/15 14:10:08;;;;;;;5.05;1.40;;;;;;;26.99;33.36;102112.41;4989878;28;20026;-88
2022/07/15 14:12:33;;;;;;;4.47;1.40;;;;;;;26.95;32.32;102111.47;4991111;28;20050;-89
2022/07/15 14:14:59;;;;;;;2.33;1.10;;;;;;;26.94;31.99;102115.38;4988261;28;20305;-87
2022/07/15 14:17:25;;;;;;;3.27;1.33;;;;;;;26.72;32.51;102111.03;4987752;28;20034;-87
2022/07/15 14:19:51;;;;;;;6.78;1.30;;;;;;;26.95;33.01;102118.91;4990264;28;20027;-87
2022/07/15 14:22:16;;;;;;;5.28;1.67;;;;;;;27.00;33.96;102111.28;4989648;28;20023;-87
2022/07/15 14:24:49;;;;;;;2.43;1.40;;;;;;;26.75;33.14;102130.41;4988749;28;20077;-89
2022/07/15 14:27:15;;;;;;;4.90;1.52;;;;;;;26.10;33.72;102113.44;4956436;28;20035;-87
2022/07/15 14:29:40;;;;;;;6.70;1.40;;;;;;;25.70;33.36;102109.97;4970632;28;20019;-87
2022/07/15 14:32:08;;;;;;;4.57;1.60;;;;;;;25.52;34.53;102103.78;4973727;28;20023;-87
2022/07/15 14:34:33;;;;;;;7.27;1.77;;;;;;;25.21;34.43;102110.28;4976870;28;20022;-87
2022/07/15 14:36:59;;;;;;;4.53;1.25;;;;;;;25.25;35.52;102103.03;4999114;28;20505;-87
2022/07/15 14:39:24;;;;;;;6.10;1.53;;;;;;;25.32;35.21;102109.94;4978614;28;20394;-88
2022/07/15 14:41:50;;;;;;;4.40;1.60;;;;;;;25.48;35.21;102107.47;4977866;28;20042;-89
2022/07/15 14:44:15;;;;;;;3.50;1.58;;;;;;;26.13;34.71;102099.88;4991986;28;20029;-87
2022/07/15 14:46:41;;;;;;;4.10;1.40;;;;;;;26.25;33.31;102101.88;4993805;28;20046;-88
2022/07/15 14:49:06;;;;;;;4.33;1.67;;;;;;;26.08;33.99;102094.56;4992729;28;20101;-88
2022/07/15 14:51:31;;;;;;;4.05;1.58;;;;;;;26.27;34.20;102091.38;4993316;28;20030;-88
2022/07/15 14:53:57;;;;;;;3.70;1.67;;;;;;;26.08;34.02;102083.59;4986719;28;20084;-88
2022/07/15 14:56:22;;;;;;;5.17;1.60;;;;;;;26.25;33.92;102093.66;4993091;28;20036;-86
2022/07/15 14:58:47;;;;;;;3.87;1.80;;;;;;;26.74;32.64;102090.31;4993160;28;20022;-86
2022/07/15 15:01:12;;;;;;;3.30;1.43;;;;;;;27.68;32.78;102078.88;4990857;28;20105;-87
2022/07/15 15:03:38;;;;;;;5.20;1.67;;;;;;;27.65;32.30;102083.13;4991493;28;20042;-86
2022/07/15 15:06:03;;;;;;;4.70;1.90;;;;;;;28.20;31.23;102087.56;4991701;28;20134;-87
2022/07/15 15:08:29;;;;;;;2.42;1.58;;;;;;;29.03;30.26;102092.59;4993116;28;20029;-86
2022/07/15 15:10:54;;;;;;;6.67;1.90;;;;;;;29.89;27.97;102093.81;4992375;28;20030;-86
2022/07/15 15:13:20;;;;;;;4.10;1.43;;;;;;;30.30;27.45;102093.53;4992005;28;20113;-86
2022/07/15 15:15:45;;;;;;;3.60;1.65;;;;;;;30.14;27.77;102090.84;4991635;28;20057;-85
2022/07/15 15:18:10;;;;;;;3.03;1.70;;;;;;;30.07;27.53;102085.16;4975017;28;20070;-85
2022/07/15 15:20:37;;;;;;;4.50;1.20;;;;;;;30.45;26.25;102093.81;4989477;28;20030;-87
2022/07/15 15:23:03;;;;;;;3.95;1.50;;;;;;;30.66;26.32;102079.63;4992230;28;20150;-85
2022/07/15 15:28:16;;;;;;;6.70;1.80;;;;;;;30.04;28.19;102075.63;4972231;28;20049;-86
2022/07/15 15:30:41;;;;;;;3.60;2.08;;;;;;;30.04;28.25;102069.28;4996627;28;20485;-87
2022/07/15 15:33:07;;;;;;;6.57;1.67;;;;;;;30.17;27.89;102064.44;4996144;28;20033;-86
2022/07/15 15:35:32;;;;;;;4.57;1.70;;;;;;;30.13;28.27;102064.34;4991542;28;20117;-87
2022/07/15 15:37:57;;;;;;;3.35;1.50;;;;;;;29.55;28.13;102056.78;4993156;28;20034;-89
2022/07/15 15:42:51;;;;;;;2.27;1.60;;;;;;;30.03;28.59;102056.66;5027959;28;20519;-85
2022/07/15 15:45:19;;;;;;;1.80;1.23;;;;;;;30.12;27.92;102050.91;5046111;28;20291;-87
2022/07/15 16:00:42;;;;;;;2.70;1.70;;;;;;;31.86;24.62;102049.09;5315555;22;20723;-89
2022/07/15 16:03:07;;;;;;;3.42;1.38;;;;;;;32.02;25.29;102030.28;5010002;28;20030;-88
2022/07/15 16:05:36;;;;;;;4.43;1.60;;;;;;;32.04;25.61;102043.75;5009129;28;20044;-88
2022/07/15 16:08:04;;;;;;;3.25;1.63;;;;;;;31.93;24.63;102038.09;4993906;28;20109;-87
2022/07/15 16:10:30;;;;;;;5.07;2.00;;;;;;;31.96;24.98;102050.38;5010973;28;20053;-87
2022/07/15 16:12:56;;;;;;;5.43;1.55;;;;;;;31.72;24.91;102038.63;5009311;28;20050;-89
2022/07/15 16:15:31;;;;;;;2.50;1.57;;;;;;;31.57;26.13;102035.63;5026131;22;20438;-85
2022/07/15 16:17:58;;;;;;;4.55;1.80;;;;;;;31.29;25.09;102038.78;5010225;28;20029;-88
2022/07/15 16:20:23;;;;;;;3.03;1.75;;;;;;;30.70;25.42;102033.47;5011469;28;20022;-89
2022/07/15 16:22:52;;;;;;;2.75;1.45;;;;;;;31.15;26.54;102033.03;4982462;28;20573;-89
2022/07/15 16:25:18;;;;;;;2.63;1.80;;;;;;;31.31;24.85;102028.16;5027593;28;20040;-88
2022/07/15 16:31:23;;;;;;;2.95;1.70;;;;;;;31.31;26.84;102011.53;4997918;28;20035;-87
2022/07/15 16:33:54;;;;;;;3.33;1.58;;;;;;;30.72;26.07;102013.72;5021454;28;20370;-88
2022/07/15 16:36:44;;;;;;;2.10;1.50;;;;;;;30.66;26.64;102032.59;5012125;28;20543;-88
2022/07/15 16:39:09;;;;;;;2.45;1.40;;;;;;;29.98;26.82;102013.53;5030663;28;20021;-86
2022/07/15 16:41:35;;;;;;;3.27;1.77;;;;;;;29.40;28.58;102017.78;5028588;28;20040;-88
2022/07/15 16:44:22;;;;;;;5.07;1.60;;;;;;;29.04;29.49;102021.66;5016602;28;20034;-87
2022/07/15 16:46:53;;;;;;;4.35;1.77;;;;;;;28.08;30.66;102013.97;5029957;28;20022;-87
2022/07/15 16:49:21;;;;;;;2.08;1.50;;;;;;;27.63;31.46;102027.63;5030780;28;20021;-87
2022/07/15 16:54:56;;;;;;;7.60;1.90;;;;;;;28.68;30.60;102030.59;5052178;23;20081;-89
2022/07/15 16:57:27;;;;;;;4.75;1.83;;;;;;;28.70;30.27;102025.53;4985727;28;20058;-88
2022/07/15 17:02:58;;;;;;;5.43;1.88;;;;;;;28.84;30.45;102014.09;4970851;28;20041;-86
2022/07/15 17:05:23;;;;;;;2.60;1.77;;;;;;;28.98;30.33;102019.16;4969740;28;20110;-87
2022/07/15 17:08:39;;;;;;;6.13;2.20;;;;;;;28.67;30.80;102008.88;4966733;28;20085;-88
2022/07/15 17:11:06;;;;;;;4.90;1.73;;;;;;;28.71;30.81;102012.53;4963564;28;20391;-88